Sainte Genevieve, Missouri
Current Conditions -  °F | °C
As of 6:15 AM on Sunday 25 Jan 2015 (Local Time) from KSAR Reporting Station
Light Rain Light Rain  
Wind Chill: 40°   Ceiling: 4300
Heat Index: 44°   Visibility: 10mi
Dew Point: 35°   Wind: 7mph
Humidity: 70%   Direction: 170°S
Pressure: 29.63"   Gusts: NA
Location:  37.98°N, 90.04°W
Report Text: KSAR 251215Z AUTO 17006KT 10SM -RA OVC043 07/01 A2963 RMK AO2 T00650014
Loading
Personal Weather Stations






























Interactive Weather Map New forecast layout! Learn more

10-Day Weather Forecast

Advertisements
Track Severe Weather on mobile